Time;durP1;ratioP1;P1;durP2;ratioP2;P2;SDS_P1;SDS_P2;PMS_P1;PMS_P2;Temp;Humidity;BMP_temperature;BMP_pressure;BME280_temperature;BME280_humidity;BME280_pressure;Samples;Min_cycle;Max_cycle;Signal;HPM_P1;HPM_P2
2021/05/09 00:01:18;;;;;;;3.93;2.20;;;15.10;99.90;;;;;;5023847;28;20209;-50
2021/05/09 00:03:45;;;;;;;3.50;2.10;;;15.00;1.00;;;;;;5025604;28;20219;-51
2021/05/09 00:06:12;;;;;;;2.90;1.80;;;15.00;99.90;;;;;;5025669;28;20200;-51
2021/05/09 00:08:38;;;;;;;3.90;2.23;;;15.00;99.90;;;;;;5026827;28;20229;-50
2021/05/09 00:11:04;;;;;;;5.00;2.40;;;15.00;99.90;;;;;;5028016;28;20294;-51
2021/05/09 00:13:31;;;;;;;2.53;2.10;;;15.00;99.90;;;;;;5028004;28;20637;-51
2021/05/09 00:15:58;;;;;;;3.07;2.00;;;15.00;99.90;;;;;;5025763;28;20296;-51
2021/05/09 00:18:26;;;;;;;5.17;2.10;;;14.90;1.00;;;;;;5026654;28;20673;-51
2021/05/09 00:20:52;;;;;;;3.13;2.20;;;14.90;1.00;;;;;;5028248;28;20609;-51
2021/05/09 00:23:18;;;;;;;2.77;2.03;;;14.90;1.00;;;;;;5028768;28;20200;-51
2021/05/09 00:25:45;;;;;;;6.03;2.30;;;14.90;1.00;;;;;;5027997;28;20548;-51
2021/05/09 00:28:11;;;;;;;3.03;2.20;;;14.90;1.00;;;;;;5027210;28;20248;-50
2021/05/09 00:30:37;;;;;;;5.87;2.57;;;14.90;1.00;;;;;;5027632;28;20298;-51
2021/05/09 00:33:04;;;;;;;3.23;2.07;;;14.90;1.00;;;;;;5028461;28;20300;-50
2021/05/09 00:35:30;;;;;;;4.00;1.80;;;14.90;1.00;;;;;;5031948;28;20311;-51
2021/05/09 00:37:56;;;;;;;3.30;2.17;;;14.90;1.00;;;;;;5030667;28;20262;-51
2021/05/09 00:40:23;;;;;;;3.10;2.23;;;14.90;1.00;;;;;;5030863;28;20301;-50
2021/05/09 00:42:49;;;;;;;4.33;2.40;;;14.90;1.00;;;;;;5029785;28;20335;-51
2021/05/09 00:45:16;;;;;;;4.77;2.07;;;14.90;1.00;;;;;;5028288;28;20263;-51
2021/05/09 00:47:42;;;;;;;2.77;2.03;;;14.90;1.00;;;;;;5030670;28;21446;-51
2021/05/09 00:50:09;;;;;;;2.33;1.80;;;14.80;1.00;;;;;;5032049;28;20318;-51
2021/05/09 00:52:38;;;;;;;2.63;2.37;;;14.80;1.00;;;;;;5029762;28;20286;-50
2021/05/09 00:55:07;;;;;;;3.60;2.10;;;14.70;70.70;;;;;;5031269;28;20253;-50
2021/05/09 00:57:36;;;;;;;3.60;2.13;;;14.70;93.40;;;;;;5033472;28;20285;-50
2021/05/09 01:00:08;;;;;;;3.50;2.20;;;14.70;99.90;;;;;;5030612;28;20196;-51
2021/05/09 01:02:35;;;;;;;4.23;2.47;;;14.60;99.90;;;;;;5028361;28;20269;-50
2021/05/09 01:05:03;;;;;;;3.13;1.93;;;14.60;99.90;;;;;;5032199;28;20699;-50
2021/05/09 01:07:30;;;;;;;4.50;2.07;;;14.60;99.90;;;;;;5030605;28;20273;-50
2021/05/09 01:09:59;;;;;;;1.97;1.77;;;14.60;99.90;;;;;;5030048;28;20314;-51
2021/05/09 01:12:26;;;;;;;5.57;2.20;;;14.60;41.70;;;;;;5029163;28;20237;-51
2021/05/09 01:14:54;;;;;;;5.13;2.30;;;14.60;99.90;;;;;;5029332;28;20293;-51
2021/05/09 01:17:20;;;;;;;4.00;2.77;;;14.60;99.90;;;;;;5032369;28;20294;-50
2021/05/09 01:19:47;;;;;;;3.20;2.40;;;14.60;94.20;;;;;;5033212;28;20269;-51
2021/05/09 01:22:13;;;;;;;3.80;2.60;;;14.60;89.70;;;;;;5028601;28;20291;-50
2021/05/09 01:24:40;;;;;;;4.33;2.20;;;14.60;61.50;;;;;;5032866;28;20234;-51
2021/05/09 01:27:07;;;;;;;4.70;2.60;;;14.50;99.90;;;;;;5032604;28;20228;-50
2021/05/09 01:29:34;;;;;;;3.37;2.33;;;14.50;99.90;;;;;;5028437;28;20235;-50
2021/05/09 01:32:01;;;;;;;3.07;2.60;;;14.50;99.90;;;;;;5029171;28;20302;-50
2021/05/09 01:34:34;;;;;;;3.80;2.20;;;14.50;99.90;;;;;;5028811;28;20204;-50
2021/05/09 01:37:02;;;;;;;3.83;2.40;;;14.40;99.90;;;;;;5031441;28;20243;-50
2021/05/09 01:39:28;;;;;;;3.30;2.43;;;14.40;99.90;;;;;;5029022;28;20672;-51
2021/05/09 01:41:56;;;;;;;2.27;2.03;;;14.30;99.90;;;;;;5030449;28;20212;-50
2021/05/09 01:44:23;;;;;;;3.67;2.20;;;14.30;99.90;;;;;;5029336;28;20611;-50
2021/05/09 01:46:50;;;;;;;3.40;2.17;;;14.30;99.90;;;;;;5031705;28;20208;-50
2021/05/09 01:49:17;;;;;;;3.80;2.20;;;14.30;1.00;;;;;;5033716;28;20204;-50
2021/05/09 01:51:43;;;;;;;4.50;2.13;;;14.30;99.90;;;;;;5031202;28;20722;-50
2021/05/09 01:54:10;;;;;;;4.13;2.33;;;14.30;1.00;;;;;;5029765;28;20205;-50
2021/05/09 01:56:36;;;;;;;2.70;1.97;;;14.30;99.90;;;;;;5029052;28;20220;-51
2021/05/09 01:59:03;;;;;;;4.80;2.27;;;14.20;1.00;;;;;;5030454;28;20239;-51
2021/05/09 02:01:30;;;;;;;4.77;2.60;;;14.20;1.00;;;;;;5030495;28;20251;-50
2021/05/09 02:03:56;;;;;;;3.23;2.27;;;14.20;1.00;;;;;;5029394;28;20219;-50
2021/05/09 02:06:23;;;;;;;5.80;2.30;;;14.10;1.00;;;;;;5031427;28;20278;-50
2021/05/09 02:08:49;;;;;;;6.00;2.47;;;14.20;1.00;;;;;;5029253;28;20286;-51
2021/05/09 02:11:16;;;;;;;2.57;2.00;;;14.20;1.00;;;;;;5031948;28;20272;-50
2021/05/09 02:13:42;;;;;;;3.30;2.23;;;14.20;1.00;;;;;;5034843;28;20205;-51
2021/05/09 02:16:08;;;;;;;3.70;2.17;;;14.20;1.00;;;;;;5030879;28;20193;-50
2021/05/09 02:18:35;;;;;;;3.17;2.03;;;14.20;1.00;;;;;;5028300;28;20308;-51
2021/05/09 02:21:01;;;;;;;2.83;2.37;;;14.20;1.00;;;;;;5028049;28;20305;-50
2021/05/09 02:23:27;;;;;;;4.87;2.77;;;14.20;1.00;;;;;;5026241;28;20643;-50
2021/05/09 02:25:54;;;;;;;3.40;2.70;;;14.20;1.00;;;;;;5031492;28;20254;-50
2021/05/09 02:28:20;;;;;;;4.37;2.50;;;14.10;1.00;;;;;;5029958;28;22282;-50
2021/05/09 02:30:46;;;;;;;5.53;2.50;;;14.10;1.00;;;;;;5025747;28;20310;-50
2021/05/09 02:33:14;;;;;;;3.13;2.27;;;14.10;1.00;;;;;;5026701;28;20637;-50
2021/05/09 02:35:40;;;;;;;5.80;2.60;;;14.10;1.00;;;;;;5029081;28;20235;-50
2021/05/09 02:38:07;;;;;;;4.77;2.80;;;14.10;1.00;;;;;;5026882;28;20264;-50
2021/05/09 02:40:34;;;;;;;4.67;2.63;;;14.10;1.00;;;;;;5028409;28;20242;-51
2021/05/09 02:43:00;;;;;;;4.00;2.60;;;14.20;1.00;;;;;;5028193;28;20203;-50
2021/05/09 02:45:27;;;;;;;4.23;2.60;;;14.10;1.00;;;;;;5028333;28;20208;-50
2021/05/09 02:47:57;;;;;;;6.27;3.13;;;14.10;1.00;;;;;;5029352;28;20218;-50
2021/05/09 02:50:23;;;;;;;3.20;2.43;;;14.10;1.00;;;;;;5028259;28;20219;-50
2021/05/09 02:52:49;;;;;;;4.93;2.60;;;14.10;1.00;;;;;;5030069;28;20639;-50
2021/05/09 02:55:16;;;;;;;4.27;2.40;;;14.00;1.00;;;;;;5028062;28;20920;-50
2021/05/09 02:57:42;;;;;;;4.03;2.60;;;14.00;1.00;;;;;;5031129;28;20596;-50
2021/05/09 03:00:10;;;;;;;3.90;2.27;;;14.10;1.00;;;;;;5026549;28;20332;-50
2021/05/09 03:02:41;;;;;;;6.83;3.00;;;14.00;1.00;;;;;;5027573;28;20202;-50
2021/05/09 03:05:09;;;;;;;5.00;2.37;;;14.00;1.00;;;;;;5029824;28;20207;-51
2021/05/09 03:07:35;;;;;;;6.13;2.60;;;14.00;1.00;;;;;;5029366;28;20285;-50
2021/05/09 03:10:02;;;;;;;5.93;2.60;;;13.90;1.00;;;;;;5028909;28;20277;-50
2021/05/09 03:12:29;;;;;;;4.20;2.43;;;13.90;1.00;;;;;;5029997;28;20690;-51
2021/05/09 03:14:56;;;;;;;6.47;2.87;;;13.90;1.00;;;;;;5029362;28;20278;-51
2021/05/09 03:17:22;;;;;;;4.77;2.63;;;13.90;1.00;;;;;;5029095;28;20303;-50
2021/05/09 03:19:49;;;;;;;3.10;2.33;;;13.90;1.00;;;;;;5028543;28;20258;-50
2021/05/09 03:22:15;;;;;;;3.80;2.67;;;13.90;1.00;;;;;;5028690;28;20248;-50
2021/05/09 03:24:42;;;;;;;4.50;2.60;;;13.90;1.00;;;;;;5027216;28;20295;-50
2021/05/09 03:27:11;;;;;;;3.50;2.50;;;13.80;1.00;;;;;;5030219;28;20238;-50
2021/05/09 03:29:37;;;;;;;4.53;2.10;;;13.80;1.00;;;;;;5027026;28;20196;-51
2021/05/09 03:32:04;;;;;;;5.90;2.80;;;13.80;1.00;;;;;;5026451;28;20352;-50
2021/05/09 03:34:30;;;;;;;3.77;2.60;;;13.80;1.00;;;;;;5028075;28;20208;-50
2021/05/09 03:36:57;;;;;;;4.20;2.70;;;13.70;1.00;;;;;;5027854;28;20240;-50
2021/05/09 03:39:23;;;;;;;5.93;2.47;;;13.80;1.00;;;;;;5028325;28;20277;-50
2021/05/09 03:41:50;;;;;;;6.47;2.50;;;13.70;1.00;;;;;;5026329;28;20324;-50
2021/05/09 03:44:16;;;;;;;4.00;2.80;;;13.80;1.00;;;;;;5028731;28;20304;-50
2021/05/09 03:46:42;;;;;;;4.60;3.13;;;13.90;1.00;;;;;;5029272;28;20258;-50
2021/05/09 03:49:09;;;;;;;4.73;2.63;;;13.90;1.00;;;;;;5027880;28;20265;-50
2021/05/09 03:51:38;;;;;;;5.77;3.10;;;13.80;1.00;;;;;;5031354;28;20251;-50
2021/05/09 03:54:07;;;;;;;4.03;3.10;;;13.90;1.00;;;;;;5029054;28;20240;-51
2021/05/09 03:56:33;;;;;;;4.33;2.67;;;13.90;1.00;;;;;;5029818;28;20560;-50
2021/05/09 03:58:59;;;;;;;4.07;2.93;;;13.90;1.00;;;;;;5028709;28;20653;-50
2021/05/09 04:01:26;;;;;;;4.63;2.43;;;13.90;1.00;;;;;;5028560;28;20248;-50
2021/05/09 04:03:52;;;;;;;7.93;2.90;;;13.80;1.00;;;;;;5026060;28;20654;-50
2021/05/09 04:06:18;;;;;;;3.87;2.67;;;13.80;1.00;;;;;;5028446;28;20251;-51
2021/05/09 04:08:45;;;;;;;2.87;2.50;;;13.80;1.00;;;;;;5026392;28;20219;-50
2021/05/09 04:11:12;;;;;;;5.13;2.87;;;13.80;1.00;;;;;;5027584;28;20808;-50
2021/05/09 04:13:46;;;;;;;3.67;2.60;;;13.90;1.00;;;;;;5028717;28;20290;-49
2021/05/09 04:16:13;;;;;;;4.83;2.83;;;13.90;1.00;;;;;;5027717;28;20188;-50
2021/05/09 04:18:40;;;;;;;4.00;2.80;;;13.90;1.00;;;;;;5027305;28;20232;-50
2021/05/09 04:21:06;;;;;;;3.67;2.60;;;13.90;1.00;;;;;;5027317;28;20690;-49
2021/05/09 04:23:32;;;;;;;6.30;2.70;;;13.90;1.00;;;;;;5026154;28;20294;-50
2021/05/09 04:25:59;;;;;;;4.40;3.00;;;14.00;1.00;;;;;;5026948;28;20653;-49
2021/05/09 04:28:26;;;;;;;4.43;2.70;;;14.00;1.00;;;;;;5028406;28;20297;-50
2021/05/09 04:30:52;;;;;;;4.10;2.70;;;14.00;1.00;;;;;;5027057;28;20220;-49
2021/05/09 04:33:25;;;;;;;4.13;2.70;;;14.00;1.00;;;;;;5024912;28;20243;-50
2021/05/09 04:35:52;;;;;;;5.37;3.00;;;14.00;1.00;;;;;;5028331;28;20236;-49
2021/05/09 04:38:19;;;;;;;6.00;2.93;;;13.90;1.00;;;;;;5025061;28;20314;-49
2021/05/09 04:40:46;;;;;;;4.47;2.53;;;13.90;1.00;;;;;;5025889;28;20599;-50
2021/05/09 04:43:15;;;;;;;4.57;2.50;;;13.90;1.00;;;;;;5027602;28;20298;-49
2021/05/09 04:45:46;;;;;;;6.03;2.40;;;14.00;1.00;;;;;;5026156;28;20275;-50
2021/05/09 04:48:14;;;;;;;7.67;2.70;;;14.00;1.00;;;;;;5026859;28;20204;-49
2021/05/09 04:50:40;;;;;;;3.00;2.70;;;14.00;1.00;;;;;;5027122;28;20228;-50
2021/05/09 04:53:26;;;;;;;3.60;2.23;;;14.00;1.00;;;;;;5028530;28;20585;-50
2021/05/09 04:55:54;;;;;;;4.10;2.20;;;14.10;1.00;;;;;;5027764;28;20204;-48
2021/05/09 04:58:20;;;;;;;5.13;2.37;;;14.10;1.00;;;;;;5026490;28;20211;-51
2021/05/09 05:00:51;;;;;;;7.17;2.20;;;14.20;1.00;;;;;;5026081;28;20266;-51
2021/05/09 05:03:18;;;;;;;2.83;2.40;;;14.30;1.00;;;;;;5028066;28;20203;-50
2021/05/09 05:05:45;;;;;;;3.00;2.20;;;14.10;1.00;;;;;;5025935;28;20314;-51
2021/05/09 05:08:11;;;;;;;4.47;2.17;;;14.30;1.00;;;;;;5026430;28;20712;-51
2021/05/09 05:10:37;;;;;;;3.20;2.87;;;14.20;1.00;;;;;;5028784;28;20287;-50
2021/05/09 05:13:19;;;;;;;5.00;2.43;;;14.30;1.00;;;;;;5025243;28;20268;-48
2021/05/09 05:15:47;;;;;;;6.40;2.47;;;14.40;1.00;;;;;;5029156;28;20258;-48
2021/05/09 05:18:14;;;;;;;4.13;2.40;;;14.40;1.00;;;;;;5027931;28;20627;-50
2021/05/09 05:20:41;;;;;;;4.47;2.47;;;14.40;1.00;;;;;;5031854;28;20273;-50
2021/05/09 05:23:07;;;;;;;4.23;2.50;;;14.40;1.00;;;;;;5029053;28;20636;-51
2021/05/09 05:25:34;;;;;;;5.00;2.47;;;14.30;99.90;;;;;;5034530;28;20206;-48
2021/05/09 05:28:02;;;;;;;2.73;2.40;;;14.40;99.90;;;;;;5030545;28;20360;-49
2021/05/09 05:30:29;;;;;;;3.53;2.53;;;14.40;99.90;;;;;;5031685;28;20249;-51
2021/05/09 05:33:04;;;;;;;3.03;2.23;;;14.40;1.00;;;;;;5029921;28;20246;-52
2021/05/09 05:35:31;;;;;;;3.73;3.10;;;14.40;1.00;;;;;;5033634;28;20269;-49
2021/05/09 05:37:57;;;;;;;3.90;2.77;;;14.50;1.00;;;;;;5029756;28;20305;-50
2021/05/09 05:40:24;;;;;;;3.13;2.47;;;14.40;1.00;;;;;;5031957;28;20203;-50
2021/05/09 05:42:51;;;;;;;4.40;2.60;;;14.40;1.00;;;;;;5031399;28;20653;-49
2021/05/09 05:45:18;;;;;;;5.63;2.90;;;14.50;99.90;;;;;;5032775;28;20262;-49
2021/05/09 05:47:45;;;;;;;5.40;2.80;;;14.50;99.90;;;;;;5032477;28;20204;-50
2021/05/09 05:50:12;;;;;;;5.13;2.57;;;14.50;99.90;;;;;;5031192;28;20223;-50
2021/05/09 05:52:39;;;;;;;2.73;2.23;;;14.50;1.00;;;;;;5032760;28;20294;-49
2021/05/09 05:55:06;;;;;;;7.23;2.50;;;14.70;99.90;;;;;;5033570;28;20220;-49
2021/05/09 05:57:32;;;;;;;3.20;2.67;;;14.70;99.90;;;;;;5031169;28;20292;-52
2021/05/09 05:59:58;;;;;;;3.53;2.37;;;14.80;99.90;;;;;;5032748;28;20212;-49
2021/05/09 06:02:25;;;;;;;6.20;2.60;;;14.80;99.90;;;;;;5027518;28;20577;-49
2021/05/09 06:04:52;;;;;;;2.80;2.20;;;14.70;99.90;;;;;;5033400;28;20205;-49
2021/05/09 06:07:18;;;;;;;4.73;2.73;;;14.80;99.90;;;;;;5030605;28;20319;-49
2021/05/09 06:09:45;;;;;;;3.17;2.50;;;14.90;99.90;;;;;;5030280;28;20200;-49
2021/05/09 06:12:11;;;;;;;3.17;2.60;;;15.00;1.00;;;;;;5017255;28;20308;-49
2021/05/09 06:14:37;;;;;;;4.37;3.00;;;15.10;1.00;;;;;;5017667;28;20261;-49
2021/05/09 06:17:03;;;;;;;4.87;3.33;;;15.10;1.00;;;;;;5027172;28;20663;-49
2021/05/09 06:19:30;;;;;;;3.10;2.73;;;15.20;1.00;;;;;;5030961;28;20300;-50
2021/05/09 06:21:56;;;;;;;3.93;3.17;;;15.30;99.90;;;;;;5030149;28;20211;-49
2021/05/09 06:24:22;;;;;;;3.70;2.73;;;15.40;99.90;;;;;;5032065;28;20656;-49
2021/05/09 06:26:49;;;;;;;4.73;3.13;;;15.50;99.90;;;;;;5033134;28;20824;-49
2021/05/09 06:29:16;;;;;;;3.40;3.03;;;15.60;99.90;;;;;;5029544;28;20359;-49
2021/05/09 06:31:42;;;;;;;4.50;3.00;;;15.80;1.00;;;;;;5025387;28;20308;-49
2021/05/09 06:34:08;;;;;;;3.30;2.97;;;16.00;71.80;;;;;;5031041;28;20764;-50
2021/05/09 06:36:35;;;;;;;4.93;3.00;;;16.20;99.90;;;;;;5029993;28;20228;-49
2021/05/09 06:39:04;;;;;;;4.43;2.53;;;16.30;99.90;;;;;;5031826;28;20207;-49
2021/05/09 06:41:31;;;;;;;3.03;2.40;;;16.60;7.80;;;;;;5031007;28;20288;-49
2021/05/09 06:44:00;;;;;;;4.80;2.53;;;16.70;1.00;;;;;;5028623;28;20204;-49
2021/05/09 06:46:26;;;;;;;5.10;3.00;;;16.90;14.10;;;;;;5030717;28;20634;-49
2021/05/09 06:48:53;;;;;;;3.33;2.27;;;16.90;99.90;;;;;;5029597;28;20212;-50
2021/05/09 06:51:20;;;;;;;3.30;2.27;;;17.10;1.00;;;;;;5028760;28;20211;-49
2021/05/09 06:53:47;;;;;;;5.87;2.70;;;17.20;1.00;;;;;;5029103;28;20244;-50
2021/05/09 06:56:14;;;;;;;3.77;1.90;;;17.30;99.90;;;;;;5032330;28;20259;-50
2021/05/09 06:58:41;;;;;;;4.73;2.13;;;17.60;1.00;;;;;;5027458;28;20213;-49
2021/05/09 07:01:07;;;;;;;3.87;2.00;;;17.80;6.30;;;;;;5029922;28;20293;-49
2021/05/09 07:03:34;;;;;;;3.80;2.37;;;17.90;1.00;;;;;;5028974;28;20221;-50
2021/05/09 07:06:00;;;;;;;4.53;2.20;;;17.90;1.00;;;;;;5034768;28;20263;-49
2021/05/09 07:08:26;;;;;;;3.93;2.30;;;18.10;1.00;;;;;;5031437;28;20293;-50
2021/05/09 07:10:52;;;;;;;3.60;2.30;;;18.10;1.00;;;;;;5032874;28;20308;-50
2021/05/09 07:13:19;;;;;;;4.97;2.30;;;18.00;1.00;;;;;;5028927;28;20222;-49
2021/05/09 07:15:46;;;;;;;4.67;1.87;;;17.90;1.00;;;;;;5029180;28;20377;-49
2021/05/09 07:18:20;;;;;;;2.97;2.27;;;17.80;1.00;;;;;;5028916;28;20215;-49
2021/05/09 07:20:52;;;;;;;3.40;2.50;;;17.80;99.90;;;;;;5031570;28;20235;-49
2021/05/09 07:23:19;;;;;;;3.10;2.00;;;17.70;1.00;;;;;;5030182;28;20601;-49
2021/05/09 07:25:45;;;;;;;2.57;1.73;;;17.80;1.00;;;;;;5031822;28;20384;-49
2021/05/09 07:28:14;;;;;;;2.30;1.80;;;17.80;48.00;;;;;;5025384;28;20750;-49
2021/05/09 07:30:43;;;;;;;3.95;2.08;;;17.80;1.00;;;;;;5026085;28;20462;-48
2021/05/09 07:33:12;;;;;;;4.50;2.23;;;18.00;1.00;;;;;;5027389;28;20206;-49
2021/05/09 07:35:40;;;;;;;2.77;2.07;;;18.90;1.00;;;;;;5030620;28;20909;-49
2021/05/09 07:38:08;;;;;;;2.37;2.00;;;19.80;1.00;;;;;;5029143;28;20904;-49
2021/05/09 07:40:35;;;;;;;3.50;2.20;;;20.10;99.90;;;;;;5032845;28;20559;-48
2021/05/09 07:43:11;;;;;;;4.03;2.40;;;19.50;99.90;;;;;;5030387;28;20215;-48
2021/05/09 07:45:38;;;;;;;5.47;2.60;;;18.90;1.00;;;;;;5028941;28;20262;-48
2021/05/09 07:48:05;;;;;;;2.87;2.50;;;18.90;17.00;;;;;;5030502;28;20200;-49
2021/05/09 07:50:32;;;;;;;3.83;2.80;;;18.80;36.80;;;;;;5029455;28;20227;-48
2021/05/09 07:52:59;;;;;;;2.87;2.60;;;18.60;99.90;;;;;;5029440;28;20669;-49
2021/05/09 07:55:26;;;;;;;3.27;2.53;;;18.60;99.90;;;;;;5027277;28;20295;-48
2021/05/09 07:57:52;;;;;;;4.30;2.47;;;18.60;1.00;;;;;;5028246;28;20634;-48
2021/05/09 08:00:20;;;;;;;3.27;2.60;;;18.70;1.00;;;;;;5027834;28;20303;-49
2021/05/09 08:02:49;;;;;;;3.30;2.23;;;18.80;1.00;;;;;;5029102;28;20382;-48
2021/05/09 08:05:17;;;;;;;3.27;2.47;;;19.10;1.00;;;;;;5028488;28;20221;-48
2021/05/09 08:07:55;;;;;;;3.20;2.50;;;19.10;1.00;;;;;;5030628;28;20203;-48
2021/05/09 08:10:26;;;;;;;3.60;2.47;;;19.10;99.90;;;;;;5027573;28;20272;-49
2021/05/09 08:12:54;;;;;;;3.13;2.27;;;19.50;95.40;;;;;;5030449;28;20313;-48
2021/05/09 08:15:24;;;;;;;3.47;2.40;;;20.30;1.00;;;;;;5028097;28;20651;-49
2021/05/09 08:17:53;;;;;;;4.30;2.30;;;21.10;99.90;;;;;;5029581;28;20236;-48
2021/05/09 08:20:23;;;;;;;5.03;2.37;;;21.70;1.00;;;;;;5029265;28;20215;-49
2021/05/09 08:22:49;;;;;;;4.80;1.90;;;22.00;1.00;;;;;;5031099;28;20287;-49
2021/05/09 08:25:16;;;;;;;3.47;2.07;;;21.70;1.00;;;;;;5035371;28;20196;-49
2021/05/09 08:27:49;;;;;;;3.20;2.27;;;22.20;1.00;;;;;;5034087;28;20240;-49
2021/05/09 08:30:17;;;;;;;2.67;2.10;;;22.20;1.00;;;;;;5034047;28;20200;-49
2021/05/09 08:32:44;;;;;;;4.83;1.93;;;22.10;1.00;;;;;;5033566;28;20327;-48
2021/05/09 08:35:11;;;;;;;2.73;2.00;;;21.70;1.00;;;;;;5030412;28;20211;-49
2021/05/09 08:37:40;;;;;;;6.17;2.13;;;21.30;1.00;;;;;;5028188;28;20281;-49
2021/05/09 08:40:08;;;;;;;1.77;1.60;;;21.00;1.00;;;;;;5029121;28;20266;-49
2021/05/09 08:42:34;;;;;;;4.67;1.90;;;21.90;1.00;;;;;;5026384;28;20979;-49
2021/05/09 08:45:01;;;;;;;4.43;1.80;;;22.50;1.00;;;;;;5027910;28;20617;-49
2021/05/09 08:47:38;;;;;;;3.15;1.90;;;23.10;1.00;;;;;;5032783;28;20553;-50
2021/05/09 08:50:06;;;;;;;4.17;1.93;;;23.60;1.00;;;;;;5028023;28;20208;-50
2021/05/09 08:52:34;;;;;;;1.40;1.30;;;23.00;1.00;;;;;;5024781;28;20216;-50
2021/05/09 08:55:02;;;;;;;4.17;2.20;;;23.20;1.00;;;;;;5031389;28;20278;-49
2021/05/09 08:57:29;;;;;;;2.60;1.73;;;22.90;1.00;;;;;;5033737;28;20197;-50
2021/05/09 08:59:55;;;;;;;2.10;1.60;;;22.70;1.00;;;;;;5032665;28;20292;-50
2021/05/09 09:02:23;;;;;;;2.63;1.50;;;22.60;1.00;;;;;;5031904;28;20260;-53
2021/05/09 09:04:52;;;;;;;1.50;1.40;;;22.90;1.00;;;;;;5031877;28;20259;-49
2021/05/09 09:07:20;;;;;;;2.90;1.83;;;22.70;1.00;;;;;;5031226;28;20314;-49
2021/05/09 09:09:48;;;;;;;2.43;1.57;;;22.80;1.00;;;;;;5031925;28;20211;-51
2021/05/09 09:12:20;;;;;;;3.27;1.33;;;22.80;1.00;;;;;;5029784;28;20220;-49
2021/05/09 09:14:51;;;;;;;2.97;1.30;;;23.00;1.00;;;;;;5031852;28;20373;-48
2021/05/09 09:17:18;;;;;;;2.20;1.43;;;23.10;1.00;;;;;;5035696;28;20207;-50
2021/05/09 09:20:15;;;;;;;2.70;1.87;;;23.10;1.00;;;;;;5038499;28;20246;-50
2021/05/09 09:22:55;;;;;;;1.73;1.50;;;23.10;1.00;;;;;;5032398;28;21016;-49
2021/05/09 09:25:25;;;;;;;3.67;1.63;;;22.80;1.00;;;;;;5036700;28;20237;-59
2021/05/09 09:27:54;;;;;;;1.83;1.40;;;22.70;1.00;;;;;;5038106;28;20652;-49
2021/05/09 09:30:23;;;;;;;1.93;1.63;;;22.50;1.00;;;;;;5035625;28;20556;-50
2021/05/09 09:33:15;;;;;;;2.40;1.53;;;22.50;1.00;;;;;;5036524;28;20290;-49
2021/05/09 09:35:43;;;;;;;2.07;1.60;;;22.70;1.00;;;;;;5038316;28;20230;-50
2021/05/09 09:38:29;;;;;;;3.07;2.00;;;23.00;1.00;;;;;;5036605;28;20649;-50
2021/05/09 09:41:14;;;;;;;3.10;1.70;;;23.30;1.00;;;;;;5036401;28;20644;-49
2021/05/09 09:44:00;;;;;;;3.37;1.80;;;23.10;1.00;;;;;;5033260;28;20663;-50
2021/05/09 09:46:35;;;;;;;5.33;1.80;;;23.20;1.00;;;;;;5034554;28;21844;-50
2021/05/09 09:49:38;;;;;;;1.90;1.67;;;23.20;1.00;;;;;;5037746;28;20245;-50
2021/05/09 09:52:07;;;;;;;2.50;1.80;;;23.30;1.00;;;;;;5036108;28;20231;-49
2021/05/09 09:54:46;;;;;;;1.97;1.53;;;23.50;1.00;;;;;;5037114;28;20385;-48
2021/05/09 09:57:22;;;;;;;3.40;1.80;;;23.60;1.00;;;;;;5036577;28;20265;-49
2021/05/09 10:00:08;;;;;;;1.70;1.60;;;23.50;1.00;;;;;;5036135;28;20234;-49
2021/05/09 10:02:36;;;;;;;3.37;1.60;;;23.50;1.00;;;;;;5035632;28;20331;-49
2021/05/09 10:05:03;;;;;;;3.20;1.73;;;23.80;1.00;;;;;;5038360;28;20749;-49
2021/05/09 10:07:30;;;;;;;2.40;1.67;;;23.90;1.00;;;;;;5038373;28;20536;-52
2021/05/09 10:09:56;;;;;;;1.77;1.67;;;23.80;1.00;;;;;;5035219;28;20478;-49
2021/05/09 10:12:26;;;;;;;3.67;1.77;;;23.70;1.00;;;;;;5034964;28;20270;-51
2021/05/09 10:14:54;;;;;;;2.17;1.60;;;23.50;1.00;;;;;;5032588;28;20233;-49
2021/05/09 10:17:22;;;;;;;2.30;1.90;;;23.40;1.00;;;;;;5030547;28;20260;-52
2021/05/09 10:19:48;;;;;;;2.73;1.77;;;23.10;1.00;;;;;;5032999;28;20329;-52
2021/05/09 10:22:28;;;;;;;3.10;1.30;;;23.00;1.00;;;;;;5033306;28;22427;-49
2021/05/09 10:24:56;;;;;;;1.90;1.80;;;22.90;1.00;;;;;;5033302;28;20286;-51
2021/05/09 10:27:52;;;;;;;6.23;1.87;;;22.80;1.00;;;;;;5031978;28;20235;-49
2021/05/09 10:30:42;;;;;;;2.33;1.60;;;22.60;1.00;;;;;;5029488;28;20217;-49
2021/05/09 10:33:09;;;;;;;2.73;1.60;;;22.60;1.00;;;;;;5024802;28;20208;-49
2021/05/09 10:35:37;;;;;;;2.10;1.87;;;22.50;1.00;;;;;;5028230;28;20188;-49
2021/05/09 10:38:04;;;;;;;2.07;1.83;;;22.30;1.00;;;;;;5026950;28;20224;-51
2021/05/09 10:40:36;;;;;;;2.30;1.87;;;22.20;99.90;;;;;;5026333;28;20287;-49
2021/05/09 10:43:02;;;;;;;2.93;1.80;;;22.20;1.00;;;;;;5031636;28;20209;-49
2021/05/09 10:45:29;;;;;;;3.20;1.87;;;22.40;1.00;;;;;;5031946;28;20204;-49
2021/05/09 10:48:32;;;;;;;6.90;1.50;;;22.80;92.20;;;;;;5026858;28;20204;-49
2021/05/09 10:51:02;;;;;;;2.80;1.80;;;23.10;1.00;;;;;;5024532;28;20266;-51
2021/05/09 10:53:34;;;;;;;2.60;1.57;;;23.20;1.00;;;;;;5026222;28;20278;-51
2021/05/09 10:56:08;;;;;;;3.33;1.97;;;23.30;1.00;;;;;;5029316;28;20254;-51
2021/05/09 10:58:55;;;;;;;2.10;1.90;;;23.60;1.00;;;;;;5029723;28;20189;-51
2021/05/09 11:01:32;;;;;;;2.50;1.60;;;23.70;1.00;;;;;;5025296;28;20327;-50
2021/05/09 11:04:04;;;;;;;3.53;1.63;;;23.70;1.00;;;;;;5023771;28;20296;-51
2021/05/09 11:06:41;;;;;;;1.77;1.67;;;23.80;1.00;;;;;;5031547;28;20207;-51
2021/05/09 11:09:15;;;;;;;6.10;2.80;;;23.90;1.00;;;;;;5028365;28;20300;-51
2021/05/09 11:11:41;;;;;;;3.00;1.80;;;24.00;1.00;;;;;;5030482;28;20225;-51
2021/05/09 11:14:09;;;;;;;2.03;1.93;;;23.60;1.00;;;;;;5029733;28;20267;-52
2021/05/09 11:16:40;;;;;;;3.20;1.50;;;23.30;1.00;;;;;;5026064;28;20218;-51
2021/05/09 11:19:14;;;;;;;4.00;1.70;;;23.10;1.00;;;;;;5030206;28;20663;-51
2021/05/09 11:21:44;;;;;;;1.93;1.73;;;23.20;1.00;;;;;;5025923;28;20281;-51
2021/05/09 11:24:18;;;;;;;3.03;1.63;;;22.90;1.00;;;;;;5026393;28;20299;-51
2021/05/09 11:26:56;;;;;;;2.50;1.80;;;22.70;1.00;;;;;;5025155;28;20231;-51
2021/05/09 11:29:27;;;;;;;3.43;1.80;;;22.60;1.00;;;;;;5027912;28;20222;-51
2021/05/09 11:31:56;;;;;;;3.30;1.90;;;22.50;1.00;;;;;;5023053;28;20268;-51
2021/05/09 11:34:24;;;;;;;1.73;1.63;;;22.40;1.00;;;;;;5025389;28;20244;-51
2021/05/09 11:36:53;;;;;;;2.70;1.67;;;22.40;1.00;;;;;;5022738;28;20319;-51
2021/05/09 11:39:36;;;;;;;1.97;1.60;;;22.30;1.00;;;;;;5027031;28;20618;-49
2021/05/09 11:42:02;;;;;;;2.57;1.70;;;22.20;1.00;;;;;;5027371;28;20239;-49
2021/05/09 11:44:33;;;;;;;2.20;2.00;;;22.10;1.00;;;;;;5032157;28;20263;-52
2021/05/09 11:47:02;;;;;;;4.00;1.70;;;22.00;1.00;;;;;;5029569;28;20591;-51
2021/05/09 11:49:30;;;;;;;2.67;1.83;;;21.90;1.00;;;;;;5024394;28;20232;-49
2021/05/09 11:51:59;;;;;;;4.63;2.37;;;21.80;1.00;;;;;;5024290;28;20228;-50
2021/05/09 11:54:28;;;;;;;3.67;2.00;;;21.80;1.00;;;;;;5027304;28;20248;-50
2021/05/09 11:56:59;;;;;;;2.03;1.57;;;21.80;1.00;;;;;;5019251;28;20208;-50
2021/05/09 11:59:29;;;;;;;3.33;1.83;;;21.70;1.00;;;;;;5025981;28;20208;-50
2021/05/09 12:02:01;;;;;;;5.20;1.83;;;21.70;84.70;;;;;;5024510;28;20207;-55
2021/05/09 12:04:29;;;;;;;4.40;2.30;;;21.60;99.90;;;;;;5027670;28;20233;-55
2021/05/09 12:06:57;;;;;;;2.00;1.70;;;21.50;99.90;;;;;;5029104;28;20216;-55
2021/05/09 12:09:24;;;;;;;2.70;2.03;;;21.40;1.00;;;;;;5025936;28;20250;-56
2021/05/09 12:11:51;;;;;;;2.37;2.07;;;21.50;1.00;;;;;;5026578;28;20239;-56
2021/05/09 12:14:17;;;;;;;4.13;2.10;;;21.40;1.00;;;;;;5023218;28;20327;-56
2021/05/09 12:16:45;;;;;;;2.87;2.00;;;21.30;1.00;;;;;;5024231;28;20228;-56
2021/05/09 12:19:13;;;;;;;2.70;2.10;;;21.20;1.00;;;;;;5029413;28;20223;-56
2021/05/09 12:21:53;;;;;;;2.73;1.90;;;21.20;99.90;;;;;;5025424;28;20836;-56
2021/05/09 12:24:19;;;;;;;2.40;2.20;;;21.20;99.90;;;;;;5026864;28;20234;-56
2021/05/09 12:27:02;;;;;;;2.53;2.30;;;21.10;1.00;;;;;;5025605;28;20314;-50
2021/05/09 12:29:29;;;;;;;3.67;2.47;;;20.90;1.00;;;;;;5024212;28;20208;-51
2021/05/09 12:32:17;;;;;;;3.23;2.30;;;20.80;99.90;;;;;;5021834;28;20351;-51
2021/05/09 12:35:07;;;;;;;4.67;2.60;;;21.00;1.00;;;;;;5026002;28;20984;-51
2021/05/09 12:37:53;;;;;;;5.67;2.83;;;21.10;1.00;;;;;;5028595;28;20263;-51
2021/05/09 12:40:23;;;;;;;4.37;2.30;;;21.50;1.00;;;;;;5029622;28;20327;-51
2021/05/09 12:42:59;;;;;;;4.73;2.50;;;22.00;1.00;;;;;;5022516;28;20297;-50
2021/05/09 12:45:33;;;;;;;2.63;2.10;;;22.50;1.00;;;;;;5023062;28;20277;-50
2021/05/09 12:48:10;;;;;;;2.00;1.63;;;22.60;1.00;;;;;;5028312;28;20350;-50
2021/05/09 12:50:54;;;;;;;2.97;1.93;;;22.70;1.00;;;;;;5025706;28;20290;-50
2021/05/09 12:53:40;;;;;;;3.40;2.10;;;22.90;1.00;;;;;;5024287;28;20554;-50
2021/05/09 12:56:26;;;;;;;3.00;2.03;;;23.10;1.00;;;;;;5028924;28;20289;-51
2021/05/09 12:59:19;;;;;;;1.97;1.77;;;23.30;1.00;;;;;;5033086;28;20197;-50
2021/05/09 13:02:01;;;;;;;3.27;1.90;;;23.30;99.90;;;;;;5028425;28;20865;-50
2021/05/09 13:04:35;;;;;;;2.90;1.77;;;23.40;99.90;;;;;;5029461;28;20208;-51
2021/05/09 13:07:04;;;;;;;3.20;2.03;;;23.60;1.00;;;;;;5025497;28;20298;-50